createdAt,value
2023-02-03T00:03:56.380Z,252.79
2023-02-03T00:09:03.566Z,252.95
2023-02-03T00:14:10.774Z,254.48
2023-02-03T00:19:17.987Z,254.85
2023-02-03T00:24:25.123Z,254.83
2023-02-03T00:29:32.332Z,255.82
2023-02-03T00:34:39.497Z,255.62
2023-02-03T00:39:46.688Z,255.30
2023-02-03T00:44:53.876Z,254.48
2023-02-03T00:50:01.112Z,253.61
2023-02-03T00:55:08.250Z,253.74
2023-02-03T01:00:15.454Z,254.68
2023-02-03T01:05:22.593Z,255.53
2023-02-03T01:10:29.777Z,254.90
2023-02-03T01:15:36.987Z,253.96
2023-02-03T01:20:44.154Z,254.62
2023-02-03T01:25:51.336Z,255.08
2023-02-03T01:30:58.769Z,255.94
2023-02-03T01:36:05.712Z,255.98
2023-02-03T01:41:12.887Z,256.44
2023-02-03T01:46:20.196Z,255.17
2023-02-03T01:51:27.275Z,253.77
2023-02-03T01:56:34.446Z,254.10
2023-02-03T02:01:41.704Z,254.39
2023-02-03T02:06:48.805Z,253.63
2023-02-03T02:11:55.963Z,253.29
2023-02-03T02:17:03.311Z,253.04
2023-02-03T02:22:10.504Z,252.36
2023-02-03T02:27:17.654Z,252.11
2023-02-03T02:32:24.871Z,252.49
2023-02-03T02:37:32.012Z,251.75
2023-02-03T02:42:39.212Z,252.68
2023-02-03T02:47:46.426Z,255.09
2023-02-03T02:52:54.236Z,255.24
2023-02-03T02:58:01.364Z,255.55
2023-02-03T03:03:08.629Z,255.32
2023-02-03T03:08:15.778Z,256.18
2023-02-03T03:13:22.953Z,255.81
2023-02-03T03:18:30.142Z,256.47
2023-02-03T03:23:37.297Z,256.25
2023-02-03T03:28:44.468Z,255.67
2023-02-03T03:33:51.738Z,255.68
2023-02-03T03:38:58.936Z,257.89
2023-02-03T03:44:06.120Z,258.92
2023-02-03T03:49:13.379Z,259.65
2023-02-03T03:54:20.530Z,256.92
2023-02-03T03:59:27.697Z,255.87
2023-02-03T04:04:34.902Z,256.75
2023-02-03T04:09:42.048Z,260.10
2023-02-03T04:14:49.235Z,261.49
2023-02-03T04:19:56.451Z,260.97
2023-02-03T04:25:03.619Z,261.45
2023-02-03T04:30:10.783Z,261.29
2023-02-03T04:35:17.992Z,262.96
2023-02-03T04:40:25.405Z,263.23
2023-02-03T04:45:32.358Z,261.54
2023-02-03T04:50:39.562Z,260.81
2023-02-03T04:55:46.731Z,259.67
2023-02-03T05:00:54.011Z,259.38
2023-02-03T05:06:01.217Z,257.61
2023-02-03T05:11:08.390Z,256.30
2023-02-03T05:16:15.638Z,257.79
2023-02-03T05:21:22.762Z,256.98
2023-02-03T05:26:29.897Z,254.94
2023-02-03T05:31:37.081Z,254.65
2023-02-03T05:36:44.326Z,255.30
2023-02-03T05:41:51.469Z,253.56
2023-02-03T05:46:58.760Z,252.10
2023-02-03T05:52:05.974Z,251.23
2023-02-03T05:57:13.120Z,252.00
2023-02-03T06:02:20.306Z,250.84
2023-02-03T06:07:27.506Z,252.69
2023-02-03T06:12:34.611Z,254.92
2023-02-03T06:17:41.896Z,254.84
2023-02-03T06:22:49.096Z,255.19
2023-02-03T06:27:56.262Z,254.34
2023-02-03T06:33:03.418Z,252.95
2023-02-03T06:38:10.619Z,253.96
2023-02-03T06:43:17.786Z,254.89
2023-02-03T06:48:24.910Z,254.28
2023-02-03T06:53:32.074Z,252.62
2023-02-03T06:58:39.247Z,251.72
2023-02-03T07:03:46.454Z,250.87
2023-02-03T07:08:53.673Z,251.92
2023-02-03T07:14:00.845Z,252.06
2023-02-03T07:19:07.973Z,250.28
2023-02-03T07:24:15.153Z,249.81
2023-02-03T07:29:22.352Z,249.68
2023-02-03T07:34:29.575Z,248.93
2023-02-03T07:39:36.803Z,250.56
2023-02-03T07:44:43.892Z,250.55
2023-02-03T07:49:51.083Z,250.17
2023-02-03T07:54:58.322Z,249.18
2023-02-03T08:00:05.574Z,249.94
2023-02-03T08:05:12.870Z,248.76
2023-02-03T08:10:19.943Z,247.71
2023-02-03T08:15:27.125Z,249.00
2023-02-03T08:20:34.295Z,247.53
2023-02-03T08:25:41.509Z,249.66
2023-02-03T08:30:48.708Z,249.77
2023-02-03T08:35:55.992Z,249.71
2023-02-03T08:41:03.176Z,249.30
2023-02-03T08:46:10.585Z,249.72
2023-02-03T08:51:17.925Z,249.14
2023-02-03T08:56:25.292Z,248.22
2023-02-03T09:01:32.563Z,248.69
2023-02-03T09:06:39.783Z,248.46
2023-02-03T09:11:47.025Z,248.49
2023-02-03T09:16:54.264Z,248.81
2023-02-03T09:22:01.383Z,248.68
2023-02-03T09:27:08.586Z,248.59
2023-02-03T09:32:16.006Z,249.16
2023-02-03T09:37:23.114Z,249.18
2023-02-03T09:42:30.315Z,249.44
2023-02-03T09:47:37.475Z,249.64
2023-02-03T09:52:44.665Z,250.71
2023-02-03T09:57:51.888Z,251.40
2023-02-03T10:02:59.054Z,250.63
2023-02-03T10:08:06.209Z,250.20
2023-02-03T10:13:13.452Z,249.61
2023-02-03T10:18:20.690Z,250.53
2023-02-03T10:23:27.903Z,250.83
2023-02-03T10:28:35.195Z,250.00
2023-02-03T10:33:42.324Z,250.41
2023-02-03T10:38:49.543Z,250.97
2023-02-03T10:43:57.678Z,252.10
2023-02-03T10:49:04.007Z,254.18
2023-02-03T10:54:11.191Z,254.86
2023-02-03T10:59:18.485Z,255.52
2023-02-03T11:04:25.619Z,256.04
2023-02-03T11:09:33.863Z,256.88
2023-02-03T11:14:41.368Z,258.22
2023-02-03T11:19:48.612Z,258.73
2023-02-03T11:24:55.783Z,259.66
2023-02-03T11:30:03.087Z,259.51
2023-02-03T11:35:10.292Z,259.55
2023-02-03T11:40:17.588Z,259.25
2023-02-03T11:45:24.726Z,258.34
2023-02-03T11:50:31.880Z,257.43
2023-02-03T11:55:39.059Z,257.68
2023-02-03T12:00:46.340Z,258.88
2023-02-03T12:05:53.543Z,259.78
2023-02-03T12:11:00.820Z,259.68
2023-02-03T12:16:08.122Z,259.34
2023-02-03T12:21:15.191Z,260.16
2023-02-03T12:26:22.375Z,259.61
2023-02-03T12:31:29.705Z,259.05
2023-02-03T12:36:36.742Z,262.16
2023-02-03T12:41:43.935Z,264.04
2023-02-03T12:46:51.141Z,264.62
2023-02-03T12:51:58.313Z,265.91
2023-02-03T12:57:06.183Z,266.87
2023-02-03T13:02:13.343Z,267.77
2023-02-03T13:07:20.457Z,269.15
2023-02-03T13:12:27.683Z,269.02
2023-02-03T13:17:34.871Z,268.77
2023-02-03T13:22:42.046Z,268.66
2023-02-03T13:27:49.259Z,269.39
2023-02-03T13:32:56.432Z,269.55
2023-02-03T13:38:03.632Z,271.05
2023-02-03T13:43:10.902Z,272.32
2023-02-03T13:48:18.215Z,270.90
2023-02-03T13:53:25.454Z,269.96
2023-02-03T13:58:32.742Z,271.85
2023-02-03T14:03:40.147Z,271.43
2023-02-03T14:08:47.280Z,270.60
2023-02-03T14:13:54.635Z,271.03
2023-02-03T14:19:01.902Z,269.95
2023-02-03T14:24:09.151Z,269.32
2023-02-03T14:29:16.341Z,268.09
2023-02-03T14:34:23.538Z,268.13
2023-02-03T14:39:30.783Z,268.45
2023-02-03T14:44:37.983Z,267.63
2023-02-03T14:49:45.206Z,267.13
2023-02-03T14:54:52.366Z,266.81
2023-02-03T14:59:59.578Z,267.54
2023-02-03T15:05:06.812Z,268.26
2023-02-03T15:10:13.905Z,268.23
2023-02-03T15:15:21.085Z,267.25
2023-02-03T15:20:28.305Z,267.67
2023-02-03T15:25:35.441Z,267.04
2023-02-03T15:30:42.633Z,268.19
2023-02-03T15:35:49.837Z,268.15
2023-02-03T15:40:57.005Z,267.87
2023-02-03T15:46:04.343Z,267.91
2023-02-03T15:51:11.486Z,267.86
2023-02-03T15:56:18.653Z,266.24
2023-02-03T16:01:25.877Z,265.91
2023-02-03T16:06:33.033Z,266.12
2023-02-03T16:11:40.256Z,266.34
2023-02-03T16:17:02.730Z,265.39
2023-02-03T16:21:54.867Z,265.29
2023-02-03T16:27:01.985Z,264.48
2023-02-03T16:32:09.225Z,264.54
2023-02-03T16:37:16.390Z,264.31
2023-02-03T16:42:23.621Z,264.61
2023-02-03T16:47:30.824Z,266.11
2023-02-03T16:52:38.110Z,266.47
2023-02-03T16:57:45.285Z,267.81
2023-02-03T17:02:52.801Z,267.56
2023-02-03T17:08:00.189Z,266.29
2023-02-03T17:13:07.359Z,265.10
2023-02-03T17:18:14.936Z,265.21
2023-02-03T17:23:22.344Z,265.91
2023-02-03T17:28:29.511Z,267.09
2023-02-03T17:33:36.972Z,266.95
2023-02-03T17:53:28.668Z,268.53
2023-02-03T17:58:36.069Z,267.46
2023-02-03T18:03:43.466Z,267.39
2023-02-03T18:08:50.763Z,267.99
2023-02-03T18:13:58.290Z,269.44
2023-02-03T18:19:05.602Z,267.49
2023-02-03T18:24:13.146Z,267.62
2023-02-03T18:29:20.809Z,268.00
2023-02-03T18:34:28.317Z,267.28
2023-02-03T18:39:35.996Z,266.30
2023-02-03T18:44:43.277Z,264.99
2023-02-03T18:49:50.771Z,264.33
2023-02-03T18:54:58.421Z,264.10
2023-02-03T19:00:06.004Z,263.45
2023-02-03T19:05:13.541Z,262.90
2023-02-03T19:10:22.175Z,262.60
2023-02-03T19:15:29.630Z,262.58
2023-02-03T19:20:37.190Z,261.71
2023-02-03T19:25:44.827Z,261.77
2023-02-03T19:30:57.513Z,261.61
2023-02-03T19:36:00.134Z,261.52
2023-02-03T19:41:07.872Z,261.45
2023-02-03T19:46:16.757Z,261.85
2023-02-03T19:51:24.427Z,262.03
2023-02-03T19:56:32.063Z,262.24
2023-02-03T20:01:39.748Z,261.95
2023-02-03T20:06:46.979Z,261.21
2023-02-03T20:11:54.482Z,260.24
2023-02-03T20:17:02.075Z,260.86
2023-02-03T20:22:09.689Z,261.28
2023-02-03T20:27:17.426Z,260.86
2023-02-03T20:32:25.023Z,259.47
2023-02-03T20:37:32.813Z,261.11
2023-02-03T20:42:40.683Z,260.67
2023-02-03T20:47:48.009Z,260.64
2023-02-03T20:52:55.489Z,260.67
2023-02-03T20:58:02.836Z,261.10
2023-02-03T21:03:10.306Z,261.81
2023-02-03T21:08:17.699Z,261.16
2023-02-03T21:13:25.159Z,260.16
2023-02-03T21:18:32.741Z,259.55
2023-02-03T21:23:40.562Z,259.56
2023-02-03T21:28:48.097Z,259.30
2023-02-03T21:33:55.404Z,258.61
2023-02-03T21:39:02.888Z,259.39
2023-02-03T21:44:10.429Z,259.82
2023-02-03T21:49:18.020Z,259.37
2023-02-03T21:54:25.349Z,258.86
2023-02-03T21:59:32.588Z,257.93
2023-02-03T22:04:39.809Z,256.60
2023-02-03T22:09:46.978Z,256.42
2023-02-03T22:14:54.373Z,257.06
2023-02-03T22:20:01.665Z,256.75
2023-02-03T22:25:08.869Z,255.89
2023-02-03T22:30:16.043Z,256.30
2023-02-03T22:35:23.243Z,256.64
2023-02-03T22:40:30.980Z,256.99
2023-02-03T22:45:37.725Z,254.60
2023-02-03T22:50:45.088Z,256.09
2023-02-03T22:55:52.352Z,257.80
2023-02-03T23:00:59.567Z,257.58
2023-02-03T23:06:06.819Z,257.21
2023-02-03T23:11:14.017Z,256.43
2023-02-03T23:16:21.231Z,256.37
2023-02-03T23:21:28.383Z,257.09
2023-02-03T23:26:35.593Z,256.13
2023-02-03T23:31:43.037Z,256.71
2023-02-03T23:36:50.085Z,257.30
2023-02-03T23:41:57.337Z,257.03
2023-02-03T23:47:04.538Z,256.89
2023-02-03T23:52:11.760Z,256.29
2023-02-03T23:57:19.061Z,256.75
